sensor_id;sensor_type;location;lat;lon;timestamp;P1;durP1;ratioP1;P2;durP2;ratioP2
64649;SDS011;51061;45.258;38.112;2022-07-03T00:00:45;16.02;;;4.90;;
64649;SDS011;51061;45.258;38.112;2022-07-03T00:05:37;24.92;;;6.00;;
64649;SDS011;51061;45.258;38.112;2022-07-03T00:10:29;17.35;;;5.07;;
64649;SDS011;51061;45.258;38.112;2022-07-03T00:12:56;17.73;;;5.28;;
64649;SDS011;51061;45.258;38.112;2022-07-03T00:17:48;23.65;;;6.72;;
64649;SDS011;51061;45.258;38.112;2022-07-03T00:20:14;20.25;;;6.50;;
64649;SDS011;51061;45.258;38.112;2022-07-03T00:25:08;25.77;;;6.35;;
64649;SDS011;51061;45.258;38.112;2022-07-03T00:27:37;24.08;;;7.55;;
64649;SDS011;51061;45.258;38.112;2022-07-03T00:30:05;20.58;;;7.53;;
64649;SDS011;51061;45.258;38.112;2022-07-03T00:32:37;24.42;;;7.40;;
64649;SDS011;51061;45.258;38.112;2022-07-03T00:35:04;33.58;;;8.63;;
64649;SDS011;51061;45.258;38.112;2022-07-03T00:37:31;30.50;;;9.38;;
64649;SDS011;51061;45.258;38.112;2022-07-03T00:42:23;29.50;;;9.18;;
64649;SDS011;51061;45.258;38.112;2022-07-03T00:44:56;30.40;;;9.20;;
64649;SDS011;51061;45.258;38.112;2022-07-03T00:47:23;36.38;;;10.27;;
64649;SDS011;51061;45.258;38.112;2022-07-03T00:49:53;30.95;;;9.93;;
64649;SDS011;51061;45.258;38.112;2022-07-03T00:52:21;34.50;;;10.73;;
64649;SDS011;51061;45.258;38.112;2022-07-03T00:54:52;33.83;;;10.10;;
64649;SDS011;51061;45.258;38.112;2022-07-03T00:57:20;38.67;;;11.23;;
64649;SDS011;51061;45.258;38.112;2022-07-03T00:59:47;37.80;;;11.50;;
64649;SDS011;51061;45.258;38.112;2022-07-03T01:14:27;39.72;;;12.30;;
64649;SDS011;51061;45.258;38.112;2022-07-03T01:19:41;51.53;;;14.18;;
64649;SDS011;51061;45.258;38.112;2022-07-03T01:30:30;48.72;;;14.13;;
64649;SDS011;51061;45.258;38.112;2022-07-03T01:33:01;47.17;;;14.43;;
64649;SDS011;51061;45.258;38.112;2022-07-03T01:35:34;51.17;;;15.48;;
64649;SDS011;51061;45.258;38.112;2022-07-03T01:38:12;44.30;;;14.82;;
64649;SDS011;51061;45.258;38.112;2022-07-03T01:40:39;43.70;;;13.90;;
64649;SDS011;51061;45.258;38.112;2022-07-03T01:43:07;44.53;;;14.52;;
64649;SDS011;51061;45.258;38.112;2022-07-03T01:45:42;49.53;;;14.27;;
64649;SDS011;51061;45.258;38.112;2022-07-03T01:48:11;48.08;;;14.68;;
64649;SDS011;51061;45.258;38.112;2022-07-03T01:50:38;52.58;;;15.00;;
64649;SDS011;51061;45.258;38.112;2022-07-03T01:53:07;52.03;;;14.63;;
64649;SDS011;51061;45.258;38.112;2022-07-03T01:55:35;49.17;;;14.88;;
64649;SDS011;51061;45.258;38.112;2022-07-03T01:58:04;45.97;;;15.18;;
64649;SDS011;51061;45.258;38.112;2022-07-03T02:00:30;47.22;;;14.48;;
64649;SDS011;51061;45.258;38.112;2022-07-03T02:03:04;47.10;;;14.90;;
64649;SDS011;51061;45.258;38.112;2022-07-03T02:05:36;50.47;;;14.68;;
64649;SDS011;51061;45.258;38.112;2022-07-03T02:11:06;51.05;;;15.05;;
64649;SDS011;51061;45.258;38.112;2022-07-03T02:13:37;42.15;;;14.02;;
64649;SDS011;51061;45.258;38.112;2022-07-03T02:16:24;49.63;;;16.00;;
64649;SDS011;51061;45.258;38.112;2022-07-03T02:19:27;46.97;;;14.35;;
64649;SDS011;51061;45.258;38.112;2022-07-03T02:21:48;49.10;;;14.77;;
64649;SDS011;51061;45.258;38.112;2022-07-03T02:24:20;54.70;;;15.07;;
64649;SDS011;51061;45.258;38.112;2022-07-03T02:29:20;48.90;;;15.30;;
64649;SDS011;51061;45.258;38.112;2022-07-03T02:31:55;50.63;;;16.23;;
64649;SDS011;51061;45.258;38.112;2022-07-03T02:34:24;54.42;;;16.10;;
64649;SDS011;51061;45.258;38.112;2022-07-03T02:36:55;56.88;;;15.82;;
64649;SDS011;51061;45.258;38.112;2022-07-03T02:42:39;55.53;;;15.40;;
64649;SDS011;51061;45.258;38.112;2022-07-03T02:45:11;49.38;;;15.38;;
64649;SDS011;51061;45.258;38.112;2022-07-03T02:50:25;49.13;;;15.43;;
64649;SDS011;51061;45.258;38.112;2022-07-03T02:55:47;51.05;;;15.27;;
64649;SDS011;51061;45.258;38.112;2022-07-03T03:00:53;51.40;;;14.57;;
64649;SDS011;51061;45.258;38.112;2022-07-03T03:03:34;53.65;;;15.18;;
64649;SDS011;51061;45.258;38.112;2022-07-03T03:06:23;53.55;;;16.13;;
64649;SDS011;51061;45.258;38.112;2022-07-03T03:08:52;51.05;;;15.30;;
64649;SDS011;51061;45.258;38.112;2022-07-03T03:11:33;47.75;;;14.00;;
64649;SDS011;51061;45.258;38.112;2022-07-03T03:14:13;46.50;;;14.30;;
64649;SDS011;51061;45.258;38.112;2022-07-03T03:16:49;44.63;;;15.10;;
64649;SDS011;51061;45.258;38.112;2022-07-03T03:19:20;50.10;;;13.88;;
64649;SDS011;51061;45.258;38.112;2022-07-03T03:21:57;47.05;;;14.85;;
64649;SDS011;51061;45.258;38.112;2022-07-03T03:24:31;41.85;;;13.38;;
64649;SDS011;51061;45.258;38.112;2022-07-03T03:26:59;46.25;;;13.40;;
64649;SDS011;51061;45.258;38.112;2022-07-03T03:29:26;44.03;;;13.50;;
64649;SDS011;51061;45.258;38.112;2022-07-03T03:31:53;45.92;;;12.65;;
64649;SDS011;51061;45.258;38.112;2022-07-03T03:34:20;37.33;;;13.05;;
64649;SDS011;51061;45.258;38.112;2022-07-03T03:36:47;42.83;;;12.23;;
64649;SDS011;51061;45.258;38.112;2022-07-03T03:41:39;55.20;;;14.07;;
64649;SDS011;51061;45.258;38.112;2022-07-03T03:46:31;49.17;;;14.35;;
64649;SDS011;51061;45.258;38.112;2022-07-03T03:51:24;54.03;;;13.50;;
64649;SDS011;51061;45.258;38.112;2022-07-03T03:53:50;46.55;;;13.18;;
64649;SDS011;51061;45.258;38.112;2022-07-03T03:56:16;43.58;;;12.68;;
64649;SDS011;51061;45.258;38.112;2022-07-03T03:58:42;47.28;;;13.02;;
64649;SDS011;51061;45.258;38.112;2022-07-03T04:01:09;46.80;;;13.32;;
64649;SDS011;51061;45.258;38.112;2022-07-03T04:03:37;42.22;;;13.77;;
64649;SDS011;51061;45.258;38.112;2022-07-03T04:06:04;40.17;;;12.95;;
64649;SDS011;51061;45.258;38.112;2022-07-03T04:08:30;43.33;;;13.52;;
64649;SDS011;51061;45.258;38.112;2022-07-03T04:10:57;48.17;;;12.85;;
64649;SDS011;51061;45.258;38.112;2022-07-03T04:13:23;45.47;;;13.43;;
64649;SDS011;51061;45.258;38.112;2022-07-03T04:15:50;44.30;;;12.70;;
64649;SDS011;51061;45.258;38.112;2022-07-03T04:18:18;48.35;;;14.32;;
64649;SDS011;51061;45.258;38.112;2022-07-03T04:20:45;42.63;;;13.25;;
64649;SDS011;51061;45.258;38.112;2022-07-03T04:25:36;45.57;;;14.90;;
64649;SDS011;51061;45.258;38.112;2022-07-03T04:28:03;75.03;;;22.10;;
64649;SDS011;51061;45.258;38.112;2022-07-03T04:30:29;52.95;;;15.73;;
64649;SDS011;51061;45.258;38.112;2022-07-03T04:32:55;50.47;;;15.57;;
64649;SDS011;51061;45.258;38.112;2022-07-03T04:35:21;44.72;;;14.55;;
64649;SDS011;51061;45.258;38.112;2022-07-03T04:37:47;44.13;;;14.30;;
64649;SDS011;51061;45.258;38.112;2022-07-03T04:40:14;42.88;;;14.52;;
64649;SDS011;51061;45.258;38.112;2022-07-03T04:42:40;52.50;;;14.85;;
64649;SDS011;51061;45.258;38.112;2022-07-03T04:45:07;51.83;;;14.40;;
64649;SDS011;51061;45.258;38.112;2022-07-03T04:47:33;47.47;;;14.32;;
64649;SDS011;51061;45.258;38.112;2022-07-03T04:49:59;46.08;;;14.32;;
64649;SDS011;51061;45.258;38.112;2022-07-03T04:52:25;47.80;;;14.65;;
64649;SDS011;51061;45.258;38.112;2022-07-03T04:54:51;41.53;;;13.45;;
64649;SDS011;51061;45.258;38.112;2022-07-03T04:57:18;40.17;;;13.00;;
64649;SDS011;51061;45.258;38.112;2022-07-03T04:59:44;43.60;;;13.48;;
64649;SDS011;51061;45.258;38.112;2022-07-03T05:02:09;38.92;;;12.27;;
64649;SDS011;51061;45.258;38.112;2022-07-03T05:04:36;42.78;;;13.15;;
64649;SDS011;51061;45.258;38.112;2022-07-03T05:07:02;45.53;;;12.52;;
64649;SDS011;51061;45.258;38.112;2022-07-03T05:09:28;34.85;;;11.10;;
64649;SDS011;51061;45.258;38.112;2022-07-03T05:11:54;38.35;;;11.38;;
64649;SDS011;51061;45.258;38.112;2022-07-03T05:14:20;37.75;;;12.02;;
64649;SDS011;51061;45.258;38.112;2022-07-03T05:16:46;39.53;;;11.70;;
64649;SDS011;51061;45.258;38.112;2022-07-03T05:19:12;38.20;;;12.18;;
64649;SDS011;51061;45.258;38.112;2022-07-03T05:21:38;31.75;;;10.70;;
64649;SDS011;51061;45.258;38.112;2022-07-03T05:24:04;35.95;;;12.07;;
64649;SDS011;51061;45.258;38.112;2022-07-03T05:26:30;26.77;;;9.70;;
64649;SDS011;51061;45.258;38.112;2022-07-03T05:28:56;36.58;;;13.02;;
64649;SDS011;51061;45.258;38.112;2022-07-03T05:31:22;32.92;;;10.82;;
64649;SDS011;51061;45.258;38.112;2022-07-03T05:33:48;33.58;;;10.52;;
64649;SDS011;51061;45.258;38.112;2022-07-03T05:36:15;30.73;;;10.13;;
64649;SDS011;51061;45.258;38.112;2022-07-03T05:38:40;34.15;;;10.32;;
64649;SDS011;51061;45.258;38.112;2022-07-03T05:41:25;33.97;;;10.57;;
64649;SDS011;51061;45.258;38.112;2022-07-03T05:43:51;36.78;;;10.55;;
64649;SDS011;51061;45.258;38.112;2022-07-03T05:46:17;31.20;;;11.00;;
64649;SDS011;51061;45.258;38.112;2022-07-03T05:48:43;28.13;;;9.95;;
64649;SDS011;51061;45.258;38.112;2022-07-03T05:51:09;36.13;;;10.57;;
64649;SDS011;51061;45.258;38.112;2022-07-03T05:53:35;31.45;;;9.57;;
64649;SDS011;51061;45.258;38.112;2022-07-03T05:56:01;19.30;;;8.48;;
64649;SDS011;51061;45.258;38.112;2022-07-03T05:58:27;22.15;;;7.40;;
64649;SDS011;51061;45.258;38.112;2022-07-03T06:00:54;20.90;;;7.97;;
64649;SDS011;51061;45.258;38.112;2022-07-03T06:03:20;31.15;;;9.02;;
64649;SDS011;51061;45.258;38.112;2022-07-03T06:05:46;24.85;;;8.88;;
64649;SDS011;51061;45.258;38.112;2022-07-03T06:08:12;24.95;;;8.00;;
64649;SDS011;51061;45.258;38.112;2022-07-03T06:10:38;29.88;;;9.65;;
64649;SDS011;51061;45.258;38.112;2022-07-03T06:13:04;19.58;;;7.50;;
64649;SDS011;51061;45.258;38.112;2022-07-03T06:15:30;28.50;;;7.60;;
64649;SDS011;51061;45.258;38.112;2022-07-03T06:17:56;34.67;;;8.15;;
64649;SDS011;51061;45.258;38.112;2022-07-03T06:20:23;20.95;;;7.05;;
64649;SDS011;51061;45.258;38.112;2022-07-03T06:22:49;20.13;;;7.50;;
64649;SDS011;51061;45.258;38.112;2022-07-03T06:25:15;23.52;;;7.82;;
64649;SDS011;51061;45.258;38.112;2022-07-03T06:27:41;25.65;;;7.60;;
64649;SDS011;51061;45.258;38.112;2022-07-03T06:30:08;18.30;;;6.47;;
64649;SDS011;51061;45.258;38.112;2022-07-03T06:32:34;49.80;;;16.98;;
64649;SDS011;51061;45.258;38.112;2022-07-03T06:35:01;24.35;;;7.32;;
64649;SDS011;51061;45.258;38.112;2022-07-03T06:37:27;15.82;;;6.22;;
64649;SDS011;51061;45.258;38.112;2022-07-03T06:39:53;21.35;;;7.03;;
64649;SDS011;51061;45.258;38.112;2022-07-03T06:42:19;19.73;;;6.95;;
64649;SDS011;51061;45.258;38.112;2022-07-03T06:44:46;21.42;;;6.57;;
64649;SDS011;51061;45.258;38.112;2022-07-03T06:47:12;20.50;;;6.50;;
64649;SDS011;51061;45.258;38.112;2022-07-03T06:49:39;22.92;;;6.63;;
64649;SDS011;51061;45.258;38.112;2022-07-03T06:52:05;22.15;;;6.88;;
64649;SDS011;51061;45.258;38.112;2022-07-03T06:54:31;19.42;;;6.05;;
64649;SDS011;51061;45.258;38.112;2022-07-03T06:56:57;21.58;;;5.40;;
64649;SDS011;51061;45.258;38.112;2022-07-03T06:59:23;16.38;;;5.57;;
64649;SDS011;51061;45.258;38.112;2022-07-03T07:01:55;13.35;;;5.88;;
64649;SDS011;51061;45.258;38.112;2022-07-03T07:04:21;18.35;;;5.53;;
64649;SDS011;51061;45.258;38.112;2022-07-03T07:06:47;21.90;;;6.50;;
64649;SDS011;51061;45.258;38.112;2022-07-03T07:09:13;15.73;;;5.30;;
64649;SDS011;51061;45.258;38.112;2022-07-03T07:11:39;12.82;;;5.72;;
64649;SDS011;51061;45.258;38.112;2022-07-03T07:14:05;15.18;;;5.05;;
64649;SDS011;51061;45.258;38.112;2022-07-03T07:16:32;13.43;;;5.28;;
64649;SDS011;51061;45.258;38.112;2022-07-03T07:18:58;13.20;;;5.38;;
64649;SDS011;51061;45.258;38.112;2022-07-03T07:21:24;14.15;;;5.30;;
64649;SDS011;51061;45.258;38.112;2022-07-03T07:23:50;14.07;;;5.18;;
64649;SDS011;51061;45.258;38.112;2022-07-03T07:26:16;15.75;;;5.18;;
64649;SDS011;51061;45.258;38.112;2022-07-03T07:28:43;16.23;;;4.68;;
64649;SDS011;51061;45.258;38.112;2022-07-03T07:31:10;19.40;;;5.00;;
64649;SDS011;51061;45.258;38.112;2022-07-03T07:33:36;11.35;;;4.80;;
64649;SDS011;51061;45.258;38.112;2022-07-03T07:36:02;11.68;;;5.15;;
64649;SDS011;51061;45.258;38.112;2022-07-03T07:38:28;16.02;;;5.22;;
64649;SDS011;51061;45.258;38.112;2022-07-03T07:40:54;18.48;;;5.55;;
64649;SDS011;51061;45.258;38.112;2022-07-03T07:43:20;15.68;;;5.75;;
64649;SDS011;51061;45.258;38.112;2022-07-03T07:45:46;20.58;;;5.80;;
64649;SDS011;51061;45.258;38.112;2022-07-03T07:48:12;16.98;;;5.72;;
64649;SDS011;51061;45.258;38.112;2022-07-03T07:50:38;18.77;;;5.80;;
64649;SDS011;51061;45.258;38.112;2022-07-03T07:53:04;13.27;;;5.60;;
64649;SDS011;51061;45.258;38.112;2022-07-03T07:55:31;14.32;;;5.45;;
64649;SDS011;51061;45.258;38.112;2022-07-03T07:57:57;20.15;;;6.30;;
64649;SDS011;51061;45.258;38.112;2022-07-03T08:00:23;21.52;;;5.35;;
64649;SDS011;51061;45.258;38.112;2022-07-03T08:02:49;21.00;;;5.85;;
64649;SDS011;51061;45.258;38.112;2022-07-03T08:05:33;14.13;;;5.15;;
64649;SDS011;51061;45.258;38.112;2022-07-03T08:10:45;18.55;;;5.70;;
64649;SDS011;51061;45.258;38.112;2022-07-03T08:13:13;51.15;;;14.13;;
64649;SDS011;51061;45.258;38.112;2022-07-03T08:15:45;20.00;;;6.68;;
64649;SDS011;51061;45.258;38.112;2022-07-03T08:18:14;14.73;;;5.63;;
64649;SDS011;51061;45.258;38.112;2022-07-03T08:20:40;16.90;;;5.68;;
64649;SDS011;51061;45.258;38.112;2022-07-03T08:23:07;14.30;;;5.78;;
64649;SDS011;51061;45.258;38.112;2022-07-03T08:25:33;17.30;;;5.18;;
64649;SDS011;51061;45.258;38.112;2022-07-03T08:27:59;13.82;;;5.30;;
64649;SDS011;51061;45.258;38.112;2022-07-03T08:30:25;15.68;;;5.20;;
64649;SDS011;51061;45.258;38.112;2022-07-03T08:32:53;18.15;;;5.57;;
64649;SDS011;51061;45.258;38.112;2022-07-03T08:35:20;18.05;;;5.57;;
64649;SDS011;51061;45.258;38.112;2022-07-03T08:37:47;15.77;;;5.10;;
64649;SDS011;51061;45.258;38.112;2022-07-03T08:40:14;13.57;;;5.50;;
64649;SDS011;51061;45.258;38.112;2022-07-03T08:42:45;13.65;;;4.88;;
64649;SDS011;51061;45.258;38.112;2022-07-03T08:45:17;14.38;;;5.57;;
64649;SDS011;51061;45.258;38.112;2022-07-03T08:47:44;12.85;;;5.55;;
64649;SDS011;51061;45.258;38.112;2022-07-03T08:50:12;24.63;;;5.63;;
64649;SDS011;51061;45.258;38.112;2022-07-03T08:52:39;15.73;;;5.20;;
64649;SDS011;51061;45.258;38.112;2022-07-03T08:55:06;16.60;;;5.68;;
64649;SDS011;51061;45.258;38.112;2022-07-03T08:57:33;14.70;;;5.22;;
64649;SDS011;51061;45.258;38.112;2022-07-03T09:00:04;19.35;;;5.82;;
64649;SDS011;51061;45.258;38.112;2022-07-03T09:02:31;18.83;;;5.82;;
64649;SDS011;51061;45.258;38.112;2022-07-03T09:04:58;16.05;;;5.88;;
64649;SDS011;51061;45.258;38.112;2022-07-03T09:07:27;15.27;;;5.45;;
64649;SDS011;51061;45.258;38.112;2022-07-03T09:09:59;13.18;;;5.47;;
64649;SDS011;51061;45.258;38.112;2022-07-03T09:12:26;17.35;;;5.15;;
64649;SDS011;51061;45.258;38.112;2022-07-03T09:14:52;13.82;;;4.85;;
64649;SDS011;51061;45.258;38.112;2022-07-03T09:17:18;14.10;;;5.25;;
64649;SDS011;51061;45.258;38.112;2022-07-03T09:19:45;12.75;;;4.68;;
64649;SDS011;51061;45.258;38.112;2022-07-03T09:22:19;18.15;;;6.00;;
64649;SDS011;51061;45.258;38.112;2022-07-03T09:24:48;15.55;;;5.82;;
64649;SDS011;51061;45.258;38.112;2022-07-03T09:27:33;13.13;;;5.72;;
64649;SDS011;51061;45.258;38.112;2022-07-03T09:30:16;18.42;;;5.20;;
64649;SDS011;51061;45.258;38.112;2022-07-03T09:32:47;13.68;;;5.30;;
64649;SDS011;51061;45.258;38.112;2022-07-03T09:37:55;16.45;;;4.97;;
64649;SDS011;51061;45.258;38.112;2022-07-03T09:40:46;13.73;;;4.90;;
64649;SDS011;51061;45.258;38.112;2022-07-03T09:43:29;20.15;;;6.53;;
64649;SDS011;51061;45.258;38.112;2022-07-03T09:48:44;14.13;;;4.97;;
64649;SDS011;51061;45.258;38.112;2022-07-03T09:53:45;13.60;;;4.95;;
64649;SDS011;51061;45.258;38.112;2022-07-03T09:56:37;18.42;;;5.57;;
64649;SDS011;51061;45.258;38.112;2022-07-03T09:59:05;15.88;;;5.57;;
64649;SDS011;51061;45.258;38.112;2022-07-03T10:01:33;16.50;;;6.03;;
64649;SDS011;51061;45.258;38.112;2022-07-03T10:06:56;13.30;;;5.30;;
64649;SDS011;51061;45.258;38.112;2022-07-03T10:09:31;10.48;;;5.07;;
64649;SDS011;51061;45.258;38.112;2022-07-03T10:11:59;13.93;;;5.80;;
64649;SDS011;51061;45.258;38.112;2022-07-03T10:14:31;14.82;;;4.75;;
64649;SDS011;51061;45.258;38.112;2022-07-03T10:16:58;12.90;;;5.30;;
64649;SDS011;51061;45.258;38.112;2022-07-03T10:19:27;13.25;;;5.13;;
64649;SDS011;51061;45.258;38.112;2022-07-03T10:24:24;15.05;;;5.57;;
64649;SDS011;51061;45.258;38.112;2022-07-03T10:26:52;22.48;;;6.95;;
64649;SDS011;51061;45.258;38.112;2022-07-03T10:29:22;16.90;;;6.10;;
64649;SDS011;51061;45.258;38.112;2022-07-03T10:31:49;16.65;;;6.57;;
64649;SDS011;51061;45.258;38.112;2022-07-03T10:34:24;12.05;;;7.03;;
64649;SDS011;51061;45.258;38.112;2022-07-03T10:36:54;15.43;;;5.70;;
64649;SDS011;51061;45.258;38.112;2022-07-03T10:40:09;20.95;;;5.78;;
64649;SDS011;51061;45.258;38.112;2022-07-03T10:42:13;12.90;;;6.05;;
64649;SDS011;51061;45.258;38.112;2022-07-03T10:47:45;13.25;;;5.88;;
64649;SDS011;51061;45.258;38.112;2022-07-03T10:50:15;17.27;;;5.53;;
64649;SDS011;51061;45.258;38.112;2022-07-03T10:52:49;17.08;;;6.97;;
64649;SDS011;51061;45.258;38.112;2022-07-03T10:55:16;20.50;;;6.22;;
64649;SDS011;51061;45.258;38.112;2022-07-03T10:57:44;20.65;;;6.55;;
64649;SDS011;51061;45.258;38.112;2022-07-03T11:00:54;21.10;;;6.22;;
64649;SDS011;51061;45.258;38.112;2022-07-03T11:09:12;27.50;;;5.43;;
64649;SDS011;51061;45.258;38.112;2022-07-03T11:14:22;18.50;;;5.70;;
64649;SDS011;51061;45.258;38.112;2022-07-03T11:19:45;17.92;;;6.07;;
64649;SDS011;51061;45.258;38.112;2022-07-03T11:22:39;18.02;;;5.22;;
64649;SDS011;51061;45.258;38.112;2022-07-03T11:25:13;33.33;;;7.55;;
64649;SDS011;51061;45.258;38.112;2022-07-03T11:27:41;19.50;;;5.82;;
64649;SDS011;51061;45.258;38.112;2022-07-03T11:30:07;19.60;;;5.55;;
64649;SDS011;51061;45.258;38.112;2022-07-03T11:32:43;23.50;;;6.13;;
64649;SDS011;51061;45.258;38.112;2022-07-03T11:38:28;14.55;;;5.70;;
64649;SDS011;51061;45.258;38.112;2022-07-03T11:40:58;17.27;;;5.60;;
64649;SDS011;51061;45.258;38.112;2022-07-03T11:43:25;24.88;;;6.25;;
64649;SDS011;51061;45.258;38.112;2022-07-03T11:45:52;22.75;;;5.88;;
64649;SDS011;51061;45.258;38.112;2022-07-03T11:48:21;19.35;;;6.53;;
64649;SDS011;51061;45.258;38.112;2022-07-03T11:50:49;18.73;;;5.85;;
64649;SDS011;51061;45.258;38.112;2022-07-03T11:55:47;28.52;;;6.60;;
64649;SDS011;51061;45.258;38.112;2022-07-03T11:58:17;23.00;;;5.78;;
64649;SDS011;51061;45.258;38.112;2022-07-03T12:00:43;17.98;;;5.72;;
64649;SDS011;51061;45.258;38.112;2022-07-03T12:03:20;17.25;;;5.43;;
64649;SDS011;51061;45.258;38.112;2022-07-03T12:05:52;15.20;;;5.53;;
64649;SDS011;51061;45.258;38.112;2022-07-03T12:08:31;17.30;;;4.70;;
64649;SDS011;51061;45.258;38.112;2022-07-03T12:10:58;18.25;;;5.53;;
64649;SDS011;51061;45.258;38.112;2022-07-03T12:13:35;17.92;;;5.40;;
64649;SDS011;51061;45.258;38.112;2022-07-03T12:18:42;14.38;;;4.68;;
64649;SDS011;51061;45.258;38.112;2022-07-03T12:21:12;15.45;;;5.07;;
64649;SDS011;51061;45.258;38.112;2022-07-03T12:23:45;14.05;;;5.10;;
64649;SDS011;51061;45.258;38.112;2022-07-03T12:28:59;10.98;;;4.47;;
64649;SDS011;51061;45.258;38.112;2022-07-03T12:31:26;15.43;;;4.65;;
64649;SDS011;51061;45.258;38.112;2022-07-03T12:33:54;13.68;;;4.85;;
64649;SDS011;51061;45.258;38.112;2022-07-03T12:36:21;19.67;;;7.32;;
64649;SDS011;51061;45.258;38.112;2022-07-03T12:38:48;14.95;;;4.78;;
64649;SDS011;51061;45.258;38.112;2022-07-03T12:41:16;14.23;;;4.32;;
64649;SDS011;51061;45.258;38.112;2022-07-03T12:43:44;13.20;;;4.85;;
64649;SDS011;51061;45.258;38.112;2022-07-03T12:46:26;10.85;;;4.45;;
64649;SDS011;51061;45.258;38.112;2022-07-03T12:48:58;17.45;;;4.75;;
64649;SDS011;51061;45.258;38.112;2022-07-03T12:51:39;17.92;;;5.43;;
64649;SDS011;51061;45.258;38.112;2022-07-03T12:56:36;23.23;;;5.32;;
64649;SDS011;51061;45.258;38.112;2022-07-03T12:59:24;15.13;;;4.90;;
64649;SDS011;51061;45.258;38.112;2022-07-03T13:02:01;14.40;;;4.82;;
64649;SDS011;51061;45.258;38.112;2022-07-03T13:04:34;22.60;;;5.20;;
64649;SDS011;51061;45.258;38.112;2022-07-03T13:07:02;13.80;;;5.10;;
64649;SDS011;51061;45.258;38.112;2022-07-03T13:09:30;20.67;;;5.38;;
64649;SDS011;51061;45.258;38.112;2022-07-03T13:12:00;20.10;;;5.80;;
64649;SDS011;51061;45.258;38.112;2022-07-03T13:14:27;29.55;;;4.75;;
64649;SDS011;51061;45.258;38.112;2022-07-03T13:16:54;16.88;;;5.32;;
64649;SDS011;51061;45.258;38.112;2022-07-03T13:19:22;20.83;;;5.70;;
64649;SDS011;51061;45.258;38.112;2022-07-03T13:21:50;24.83;;;6.18;;
64649;SDS011;51061;45.258;38.112;2022-07-03T13:24:19;18.45;;;4.85;;
64649;SDS011;51061;45.258;38.112;2022-07-03T13:26:46;14.43;;;5.00;;
64649;SDS011;51061;45.258;38.112;2022-07-03T13:29:12;14.73;;;5.47;;
64649;SDS011;51061;45.258;38.112;2022-07-03T13:31:38;15.65;;;5.03;;
64649;SDS011;51061;45.258;38.112;2022-07-03T13:34:05;17.88;;;5.00;;
64649;SDS011;51061;45.258;38.112;2022-07-03T13:36:31;12.65;;;4.57;;
64649;SDS011;51061;45.258;38.112;2022-07-03T13:38:58;15.65;;;4.90;;
64649;SDS011;51061;45.258;38.112;2022-07-03T13:41:24;14.23;;;5.05;;
64649;SDS011;51061;45.258;38.112;2022-07-03T13:43:51;26.08;;;5.45;;
64649;SDS011;51061;45.258;38.112;2022-07-03T13:46:18;18.13;;;4.40;;
64649;SDS011;51061;45.258;38.112;2022-07-03T13:48:47;12.68;;;4.40;;
64649;SDS011;51061;45.258;38.112;2022-07-03T13:51:13;19.92;;;4.97;;
64649;SDS011;51061;45.258;38.112;2022-07-03T13:53:39;12.93;;;4.70;;
64649;SDS011;51061;45.258;38.112;2022-07-03T13:56:05;17.27;;;4.70;;
64649;SDS011;51061;45.258;38.112;2022-07-03T13:58:32;25.77;;;5.13;;
64649;SDS011;51061;45.258;38.112;2022-07-03T14:00:58;21.10;;;5.05;;
64649;SDS011;51061;45.258;38.112;2022-07-03T14:03:25;15.60;;;4.95;;
64649;SDS011;51061;45.258;38.112;2022-07-03T14:05:51;15.32;;;5.47;;
64649;SDS011;51061;45.258;38.112;2022-07-03T14:08:26;17.87;;;5.00;;
64649;SDS011;51061;45.258;38.112;2022-07-03T14:10:52;15.18;;;4.82;;
64649;SDS011;51061;45.258;38.112;2022-07-03T14:13:18;23.70;;;5.75;;
64649;SDS011;51061;45.258;38.112;2022-07-03T14:15:44;15.63;;;5.15;;
64649;SDS011;51061;45.258;38.112;2022-07-03T14:18:10;17.90;;;4.80;;
64649;SDS011;51061;45.258;38.112;2022-07-03T14:20:36;17.00;;;4.57;;
64649;SDS011;51061;45.258;38.112;2022-07-03T14:23:02;24.77;;;5.05;;
64649;SDS011;51061;45.258;38.112;2022-07-03T14:25:28;21.75;;;5.43;;
64649;SDS011;51061;45.258;38.112;2022-07-03T14:27:54;12.35;;;4.93;;
64649;SDS011;51061;45.258;38.112;2022-07-03T14:30:39;22.60;;;6.55;;
64649;SDS011;51061;45.258;38.112;2022-07-03T14:33:23;21.50;;;4.97;;
64649;SDS011;51061;45.258;38.112;2022-07-03T14:35:50;23.52;;;5.63;;
64649;SDS011;51061;45.258;38.112;2022-07-03T14:38:16;18.08;;;5.88;;
64649;SDS011;51061;45.258;38.112;2022-07-03T14:40:42;19.85;;;6.32;;
64649;SDS011;51061;45.258;38.112;2022-07-03T14:43:08;26.35;;;5.68;;
64649;SDS011;51061;45.258;38.112;2022-07-03T14:45:34;17.80;;;5.93;;
64649;SDS011;51061;45.258;38.112;2022-07-03T14:48:00;25.30;;;6.38;;
64649;SDS011;51061;45.258;38.112;2022-07-03T14:50:26;15.65;;;5.55;;
64649;SDS011;51061;45.258;38.112;2022-07-03T14:52:52;16.27;;;6.35;;
64649;SDS011;51061;45.258;38.112;2022-07-03T14:55:21;22.95;;;5.47;;
64649;SDS011;51061;45.258;38.112;2022-07-03T14:58:02;18.88;;;6.68;;
64649;SDS011;51061;45.258;38.112;2022-07-03T15:00:34;17.02;;;6.03;;
64649;SDS011;51061;45.258;38.112;2022-07-03T15:03:04;19.35;;;6.97;;
64649;SDS011;51061;45.258;38.112;2022-07-03T15:05:32;25.73;;;8.00;;
64649;SDS011;51061;45.258;38.112;2022-07-03T15:10:54;26.58;;;9.15;;
64649;SDS011;51061;45.258;38.112;2022-07-03T15:14:04;23.42;;;7.28;;
64649;SDS011;51061;45.258;38.112;2022-07-03T15:16:32;21.50;;;7.55;;
64649;SDS011;51061;45.258;38.112;2022-07-03T15:18:59;20.73;;;6.80;;
64649;SDS011;51061;45.258;38.112;2022-07-03T15:21:33;35.75;;;8.50;;
64649;SDS011;51061;45.258;38.112;2022-07-03T15:24:06;25.10;;;7.07;;
64649;SDS011;51061;45.258;38.112;2022-07-03T15:26:33;20.33;;;6.47;;
64649;SDS011;51061;45.258;38.112;2022-07-03T15:28:59;28.70;;;6.47;;
64649;SDS011;51061;45.258;38.112;2022-07-03T15:31:27;16.00;;;6.05;;
64649;SDS011;51061;45.258;38.112;2022-07-03T15:33:55;26.42;;;6.50;;
64649;SDS011;51061;45.258;38.112;2022-07-03T15:36:26;18.65;;;6.18;;
64649;SDS011;51061;45.258;38.112;2022-07-03T15:39:02;22.63;;;5.32;;
64649;SDS011;51061;45.258;38.112;2022-07-03T15:41:44;23.65;;;6.05;;
64649;SDS011;51061;45.258;38.112;2022-07-03T15:44:23;20.52;;;5.75;;
64649;SDS011;51061;45.258;38.112;2022-07-03T15:49:46;17.92;;;5.80;;
64649;SDS011;51061;45.258;38.112;2022-07-03T15:52:21;19.85;;;5.72;;
64649;SDS011;51061;45.258;38.112;2022-07-03T16:00:14;14.73;;;5.57;;
64649;SDS011;51061;45.258;38.112;2022-07-03T16:05:50;32.60;;;6.25;;
64649;SDS011;51061;45.258;38.112;2022-07-03T16:08:19;27.17;;;5.97;;
64649;SDS011;51061;45.258;38.112;2022-07-03T16:10:46;24.83;;;5.70;;
64649;SDS011;51061;45.258;38.112;2022-07-03T16:13:12;21.05;;;5.55;;
64649;SDS011;51061;45.258;38.112;2022-07-03T16:15:40;17.90;;;5.20;;
64649;SDS011;51061;45.258;38.112;2022-07-03T16:18:08;21.05;;;5.35;;
64649;SDS011;51061;45.258;38.112;2022-07-03T16:20:35;25.40;;;5.60;;
64649;SDS011;51061;45.258;38.112;2022-07-03T16:23:03;15.98;;;5.25;;
64649;SDS011;51061;45.258;38.112;2022-07-03T16:25:34;16.33;;;5.60;;
64649;SDS011;51061;45.258;38.112;2022-07-03T16:28:07;18.42;;;5.35;;
64649;SDS011;51061;45.258;38.112;2022-07-03T16:30:36;19.80;;;5.60;;